sensor_id;sensor_type;location;lat;lon;timestamp;temperature;humidity
7666;DHT22;3875;46.562;4.898;2023-04-27T00:02:14;11.80;80.90
7666;DHT22;3875;46.562;4.898;2023-04-27T00:04:40;11.80;81.10
7666;DHT22;3875;46.562;4.898;2023-04-27T00:07:07;11.80;81.20
7666;DHT22;3875;46.562;4.898;2023-04-27T00:09:33;11.90;81.10
7666;DHT22;3875;46.562;4.898;2023-04-27T00:11:59;11.90;81.10
7666;DHT22;3875;46.562;4.898;2023-04-27T00:14:25;11.90;80.90
7666;DHT22;3875;46.562;4.898;2023-04-27T00:16:53;11.90;81.10
7666;DHT22;3875;46.562;4.898;2023-04-27T00:19:19;11.90;81.00
7666;DHT22;3875;46.562;4.898;2023-04-27T00:21:45;11.80;81.10
7666;DHT22;3875;46.562;4.898;2023-04-27T00:24:11;11.80;81.20
7666;DHT22;3875;46.562;4.898;2023-04-27T00:26:37;11.70;81.00
7666;DHT22;3875;46.562;4.898;2023-04-27T00:29:02;11.50;81.40
7666;DHT22;3875;46.562;4.898;2023-04-27T00:31:28;11.30;82.00
7666;DHT22;3875;46.562;4.898;2023-04-27T00:33:54;11.30;82.20
7666;DHT22;3875;46.562;4.898;2023-04-27T00:36:22;11.40;82.10
7666;DHT22;3875;46.562;4.898;2023-04-27T00:38:47;11.40;81.90
7666;DHT22;3875;46.562;4.898;2023-04-27T00:41:13;11.40;82.00
7666;DHT22;3875;46.562;4.898;2023-04-27T00:43:43;11.30;81.60
7666;DHT22;3875;46.562;4.898;2023-04-27T00:46:11;11.40;81.90
7666;DHT22;3875;46.562;4.898;2023-04-27T00:48:38;11.30;82.00
7666;DHT22;3875;46.562;4.898;2023-04-27T00:51:04;11.40;82.00
7666;DHT22;3875;46.562;4.898;2023-04-27T00:53:30;11.50;81.90
7666;DHT22;3875;46.562;4.898;2023-04-27T00:55:56;11.50;81.70
7666;DHT22;3875;46.562;4.898;2023-04-27T00:58:23;11.50;81.50
7666;DHT22;3875;46.562;4.898;2023-04-27T01:00:48;11.50;81.40
7666;DHT22;3875;46.562;4.898;2023-04-27T01:03:15;11.40;81.40
7666;DHT22;3875;46.562;4.898;2023-04-27T01:05:42;11.30;82.10
7666;DHT22;3875;46.562;4.898;2023-04-27T01:08:08;11.30;82.60
7666;DHT22;3875;46.562;4.898;2023-04-27T01:10:34;11.30;82.50
7666;DHT22;3875;46.562;4.898;2023-04-27T01:13:00;11.30;82.60
7666;DHT22;3875;46.562;4.898;2023-04-27T01:15:26;11.30;82.70
7666;DHT22;3875;46.562;4.898;2023-04-27T01:18:01;11.30;82.90
7666;DHT22;3875;46.562;4.898;2023-04-27T01:20:27;11.30;83.00
7666;DHT22;3875;46.562;4.898;2023-04-27T01:22:55;11.20;83.20
7666;DHT22;3875;46.562;4.898;2023-04-27T01:25:21;11.20;83.40
7666;DHT22;3875;46.562;4.898;2023-04-27T01:27:47;11.20;83.30
7666;DHT22;3875;46.562;4.898;2023-04-27T01:30:12;11.20;83.30
7666;DHT22;3875;46.562;4.898;2023-04-27T01:32:38;11.30;83.10
7666;DHT22;3875;46.562;4.898;2023-04-27T01:35:05;11.30;83.20
7666;DHT22;3875;46.562;4.898;2023-04-27T01:37:31;11.30;83.60
7666;DHT22;3875;46.562;4.898;2023-04-27T01:39:57;11.30;83.40
7666;DHT22;3875;46.562;4.898;2023-04-27T01:42:23;11.20;83.50
7666;DHT22;3875;46.562;4.898;2023-04-27T01:44:52;11.20;83.70
7666;DHT22;3875;46.562;4.898;2023-04-27T01:47:28;11.20;83.80
7666;DHT22;3875;46.562;4.898;2023-04-27T01:49:54;11.20;83.80
7666;DHT22;3875;46.562;4.898;2023-04-27T01:52:20;11.10;84.00
7666;DHT22;3875;46.562;4.898;2023-04-27T01:54:46;11.20;84.40
7666;DHT22;3875;46.562;4.898;2023-04-27T01:57:11;11.20;84.20
7666;DHT22;3875;46.562;4.898;2023-04-27T01:59:38;11.30;84.00
7666;DHT22;3875;46.562;4.898;2023-04-27T02:02:04;11.20;84.00
7666;DHT22;3875;46.562;4.898;2023-04-27T02:04:38;11.10;84.60
7666;DHT22;3875;46.562;4.898;2023-04-27T02:07:04;10.90;85.20
7666;DHT22;3875;46.562;4.898;2023-04-27T02:09:29;10.90;85.60
7666;DHT22;3875;46.562;4.898;2023-04-27T02:11:55;10.90;85.60
7666;DHT22;3875;46.562;4.898;2023-04-27T02:14:21;10.90;85.60
7666;DHT22;3875;46.562;4.898;2023-04-27T02:16:46;10.80;87.00
7666;DHT22;3875;46.562;4.898;2023-04-27T02:19:12;10.70;87.00
7666;DHT22;3875;46.562;4.898;2023-04-27T02:21:39;10.80;86.80
7666;DHT22;3875;46.562;4.898;2023-04-27T02:24:05;10.90;86.50
7666;DHT22;3875;46.562;4.898;2023-04-27T02:26:31;11.00;85.90
7666;DHT22;3875;46.562;4.898;2023-04-27T02:28:57;11.00;85.70
7666;DHT22;3875;46.562;4.898;2023-04-27T02:31:23;11.10;85.50
7666;DHT22;3875;46.562;4.898;2023-04-27T02:33:48;11.10;85.30
7666;DHT22;3875;46.562;4.898;2023-04-27T02:36:14;11.10;85.30
7666;DHT22;3875;46.562;4.898;2023-04-27T02:38:40;11.00;85.20
7666;DHT22;3875;46.562;4.898;2023-04-27T02:41:05;11.00;85.20
7666;DHT22;3875;46.562;4.898;2023-04-27T02:43:31;11.00;85.10
7666;DHT22;3875;46.562;4.898;2023-04-27T02:46:04;11.00;85.10
7666;DHT22;3875;46.562;4.898;2023-04-27T02:48:30;10.90;85.10
7666;DHT22;3875;46.562;4.898;2023-04-27T02:50:58;10.90;85.20
7666;DHT22;3875;46.562;4.898;2023-04-27T02:53:24;11.00;85.10
7666;DHT22;3875;46.562;4.898;2023-04-27T02:55:50;11.00;85.10
7666;DHT22;3875;46.562;4.898;2023-04-27T02:58:16;10.90;85.10
7666;DHT22;3875;46.562;4.898;2023-04-27T03:00:42;10.90;85.10
7666;DHT22;3875;46.562;4.898;2023-04-27T03:03:08;10.80;85.40
7666;DHT22;3875;46.562;4.898;2023-04-27T03:05:36;10.80;85.60
7666;DHT22;3875;46.562;4.898;2023-04-27T03:08:02;10.80;85.60
7666;DHT22;3875;46.562;4.898;2023-04-27T03:10:28;10.80;85.80
7666;DHT22;3875;46.562;4.898;2023-04-27T03:12:54;10.70;86.00
7666;DHT22;3875;46.562;4.898;2023-04-27T03:15:20;10.60;86.10
7666;DHT22;3875;46.562;4.898;2023-04-27T03:17:45;10.50;86.40
7666;DHT22;3875;46.562;4.898;2023-04-27T03:20:11;10.50;86.50
7666;DHT22;3875;46.562;4.898;2023-04-27T03:22:37;10.60;86.30
7666;DHT22;3875;46.562;4.898;2023-04-27T03:25:03;10.70;86.40
7666;DHT22;3875;46.562;4.898;2023-04-27T03:27:29;10.70;86.10
7666;DHT22;3875;46.562;4.898;2023-04-27T03:29:55;10.70;86.10
7666;DHT22;3875;46.562;4.898;2023-04-27T03:32:21;10.80;86.10
7666;DHT22;3875;46.562;4.898;2023-04-27T03:34:46;10.90;86.10
7666;DHT22;3875;46.562;4.898;2023-04-27T03:37:12;10.90;85.90
7666;DHT22;3875;46.562;4.898;2023-04-27T03:39:38;11.00;85.90
7666;DHT22;3875;46.562;4.898;2023-04-27T03:42:04;11.00;85.80
7666;DHT22;3875;46.562;4.898;2023-04-27T03:44:30;11.10;85.70
7666;DHT22;3875;46.562;4.898;2023-04-27T03:46:57;11.10;85.80
7666;DHT22;3875;46.562;4.898;2023-04-27T03:49:23;11.10;85.90
7666;DHT22;3875;46.562;4.898;2023-04-27T03:51:49;11.10;85.90
7666;DHT22;3875;46.562;4.898;2023-04-27T03:54:15;11.20;85.80
7666;DHT22;3875;46.562;4.898;2023-04-27T03:56:41;11.20;85.80
7666;DHT22;3875;46.562;4.898;2023-04-27T03:59:06;11.20;85.70
7666;DHT22;3875;46.562;4.898;2023-04-27T04:01:32;11.20;85.60
7666;DHT22;3875;46.562;4.898;2023-04-27T04:04:04;11.10;85.70
7666;DHT22;3875;46.562;4.898;2023-04-27T04:06:29;11.20;85.90
7666;DHT22;3875;46.562;4.898;2023-04-27T04:08:55;11.20;86.00
7666;DHT22;3875;46.562;4.898;2023-04-27T04:11:21;11.20;86.00
7666;DHT22;3875;46.562;4.898;2023-04-27T04:13:47;11.20;85.80
7666;DHT22;3875;46.562;4.898;2023-04-27T04:16:12;11.10;85.90
7666;DHT22;3875;46.562;4.898;2023-04-27T04:18:40;11.10;86.00
7666;DHT22;3875;46.562;4.898;2023-04-27T04:21:09;11.10;86.10
7666;DHT22;3875;46.562;4.898;2023-04-27T04:23:37;11.10;86.10
7666;DHT22;3875;46.562;4.898;2023-04-27T04:26:05;11.10;86.00
7666;DHT22;3875;46.562;4.898;2023-04-27T04:28:31;11.00;86.10
7666;DHT22;3875;46.562;4.898;2023-04-27T04:30:59;11.00;86.10
7666;DHT22;3875;46.562;4.898;2023-04-27T04:33:25;11.00;86.20
7666;DHT22;3875;46.562;4.898;2023-04-27T04:35:51;11.00;86.10
7666;DHT22;3875;46.562;4.898;2023-04-27T04:38:17;11.00;86.10
7666;DHT22;3875;46.562;4.898;2023-04-27T04:40:45;10.90;86.20
7666;DHT22;3875;46.562;4.898;2023-04-27T04:43:11;10.90;86.10
7666;DHT22;3875;46.562;4.898;2023-04-27T04:45:45;10.90;86.20
7666;DHT22;3875;46.562;4.898;2023-04-27T04:48:13;11.00;86.10
7666;DHT22;3875;46.562;4.898;2023-04-27T04:50:39;10.90;86.20
7666;DHT22;3875;46.562;4.898;2023-04-27T04:53:06;10.90;86.30
7666;DHT22;3875;46.562;4.898;2023-04-27T04:55:34;10.70;87.60
7666;DHT22;3875;46.562;4.898;2023-04-27T04:58:00;10.40;88.60
7666;DHT22;3875;46.562;4.898;2023-04-27T05:00:29;10.30;89.20
7666;DHT22;3875;46.562;4.898;2023-04-27T05:02:54;10.40;88.90
7666;DHT22;3875;46.562;4.898;2023-04-27T05:05:20;10.40;88.70
7666;DHT22;3875;46.562;4.898;2023-04-27T05:07:46;10.50;88.50
7666;DHT22;3875;46.562;4.898;2023-04-27T05:10:12;10.60;88.10
7666;DHT22;3875;46.562;4.898;2023-04-27T05:12:37;10.70;87.80
7666;DHT22;3875;46.562;4.898;2023-04-27T05:15:04;10.80;87.50
7666;DHT22;3875;46.562;4.898;2023-04-27T05:17:37;10.90;87.00
7666;DHT22;3875;46.562;4.898;2023-04-27T05:23:34;11.00;86.70
7666;DHT22;3875;46.562;4.898;2023-04-27T05:29:19;11.30;85.90
7666;DHT22;3875;46.562;4.898;2023-04-27T05:32:14;11.50;85.90
7666;DHT22;3875;46.562;4.898;2023-04-27T05:34:43;11.70;85.70
7666;DHT22;3875;46.562;4.898;2023-04-27T05:37:11;11.80;85.10
7666;DHT22;3875;46.562;4.898;2023-04-27T05:39:38;11.90;84.70
7666;DHT22;3875;46.562;4.898;2023-04-27T05:42:04;11.70;85.50
7666;DHT22;3875;46.562;4.898;2023-04-27T05:44:29;11.90;85.60
7666;DHT22;3875;46.562;4.898;2023-04-27T05:46:55;12.00;85.30
7666;DHT22;3875;46.562;4.898;2023-04-27T05:49:21;12.30;85.10
7666;DHT22;3875;46.562;4.898;2023-04-27T05:51:50;12.70;84.50
7666;DHT22;3875;46.562;4.898;2023-04-27T05:54:19;13.00;83.80
7666;DHT22;3875;46.562;4.898;2023-04-27T05:57:24;13.40;83.10
7666;DHT22;3875;46.562;4.898;2023-04-27T06:03:22;13.80;81.40
7666;DHT22;3875;46.562;4.898;2023-04-27T06:05:55;13.90;81.60
7666;DHT22;3875;46.562;4.898;2023-04-27T06:08:22;14.10;81.40
7666;DHT22;3875;46.562;4.898;2023-04-27T06:17:35;14.00;81.50
7666;DHT22;3875;46.562;4.898;2023-04-27T06:23:20;14.00;81.80
7666;DHT22;3875;46.562;4.898;2023-04-27T06:25:54;14.10;81.60
7666;DHT22;3875;46.562;4.898;2023-04-27T06:28:27;14.10;81.40
7666;DHT22;3875;46.562;4.898;2023-04-27T06:31:04;14.20;81.10
7666;DHT22;3875;46.562;4.898;2023-04-27T06:33:30;14.20;80.90
7666;DHT22;3875;46.562;4.898;2023-04-27T06:35:56;14.30;80.50
7666;DHT22;3875;46.562;4.898;2023-04-27T06:38:22;14.50;80.70
7666;DHT22;3875;46.562;4.898;2023-04-27T06:40:51;14.70;79.90
7666;DHT22;3875;46.562;4.898;2023-04-27T06:43:17;14.90;79.50
7666;DHT22;3875;46.562;4.898;2023-04-27T06:45:43;15.30;78.80
7666;DHT22;3875;46.562;4.898;2023-04-27T06:48:09;15.30;78.20
7666;DHT22;3875;46.562;4.898;2023-04-27T06:50:35;15.20;77.20
7666;DHT22;3875;46.562;4.898;2023-04-27T06:53:00;15.30;76.70
7666;DHT22;3875;46.562;4.898;2023-04-27T06:55:26;15.00;77.30
7666;DHT22;3875;46.562;4.898;2023-04-27T06:57:51;14.70;77.90
7666;DHT22;3875;46.562;4.898;2023-04-27T07:00:17;14.40;78.40
7666;DHT22;3875;46.562;4.898;2023-04-27T07:02:44;14.30;79.10
7666;DHT22;3875;46.562;4.898;2023-04-27T07:05:09;14.20;79.60
7666;DHT22;3875;46.562;4.898;2023-04-27T07:07:35;14.30;80.20
7666;DHT22;3875;46.562;4.898;2023-04-27T07:10:01;14.40;79.80
7666;DHT22;3875;46.562;4.898;2023-04-27T07:12:26;14.50;80.30
7666;DHT22;3875;46.562;4.898;2023-04-27T07:14:52;14.80;80.50
7666;DHT22;3875;46.562;4.898;2023-04-27T07:17:18;15.00;79.50
7666;DHT22;3875;46.562;4.898;2023-04-27T07:19:44;15.30;79.20
7666;DHT22;3875;46.562;4.898;2023-04-27T07:22:10;15.60;78.40
7666;DHT22;3875;46.562;4.898;2023-04-27T07:24:36;15.80;78.20
7666;DHT22;3875;46.562;4.898;2023-04-27T07:27:01;15.90;77.30
7666;DHT22;3875;46.562;4.898;2023-04-27T07:29:28;16.10;77.60
7666;DHT22;3875;46.562;4.898;2023-04-27T07:31:55;16.80;76.10
7666;DHT22;3875;46.562;4.898;2023-04-27T07:34:21;17.00;75.70
7666;DHT22;3875;46.562;4.898;2023-04-27T07:36:46;17.10;75.40
7666;DHT22;3875;46.562;4.898;2023-04-27T07:39:12;17.30;75.20
7666;DHT22;3875;46.562;4.898;2023-04-27T07:41:38;17.50;75.00
7666;DHT22;3875;46.562;4.898;2023-04-27T07:44:04;17.70;74.40
7666;DHT22;3875;46.562;4.898;2023-04-27T07:46:30;17.80;73.60
7666;DHT22;3875;46.562;4.898;2023-04-27T07:48:56;17.90;73.80
7666;DHT22;3875;46.562;4.898;2023-04-27T07:51:24;18.00;73.90
7666;DHT22;3875;46.562;4.898;2023-04-27T07:53:53;18.10;73.70
7666;DHT22;3875;46.562;4.898;2023-04-27T07:56:19;18.20;73.00
7666;DHT22;3875;46.562;4.898;2023-04-27T07:58:45;18.30;72.80
7666;DHT22;3875;46.562;4.898;2023-04-27T08:01:10;18.40;72.60
7666;DHT22;3875;46.562;4.898;2023-04-27T08:03:36;18.50;72.80
7666;DHT22;3875;46.562;4.898;2023-04-27T08:06:02;18.70;72.40
7666;DHT22;3875;46.562;4.898;2023-04-27T08:08:28;18.80;71.00
7666;DHT22;3875;46.562;4.898;2023-04-27T08:10:54;18.80;71.20
7666;DHT22;3875;46.562;4.898;2023-04-27T08:13:20;19.00;71.50
7666;DHT22;3875;46.562;4.898;2023-04-27T08:15:46;19.20;70.80
7666;DHT22;3875;46.562;4.898;2023-04-27T08:18:12;19.30;70.40
7666;DHT22;3875;46.562;4.898;2023-04-27T08:20:37;19.50;69.80
7666;DHT22;3875;46.562;4.898;2023-04-27T08:23:03;19.70;68.20
7666;DHT22;3875;46.562;4.898;2023-04-27T08:25:28;19.80;68.00
7666;DHT22;3875;46.562;4.898;2023-04-27T08:27:54;20.00;68.30
7666;DHT22;3875;46.562;4.898;2023-04-27T08:30:20;20.20;67.70
7666;DHT22;3875;46.562;4.898;2023-04-27T08:32:46;20.40;66.80
7666;DHT22;3875;46.562;4.898;2023-04-27T08:35:12;20.50;66.90
7666;DHT22;3875;46.562;4.898;2023-04-27T08:37:39;20.70;65.60
7666;DHT22;3875;46.562;4.898;2023-04-27T08:40:05;20.80;65.30
7666;DHT22;3875;46.562;4.898;2023-04-27T08:42:32;20.70;66.00
7666;DHT22;3875;46.562;4.898;2023-04-27T08:44:58;20.70;66.20
7666;DHT22;3875;46.562;4.898;2023-04-27T08:47:24;20.60;66.00
7666;DHT22;3875;46.562;4.898;2023-04-27T08:49:49;20.70;66.50
7666;DHT22;3875;46.562;4.898;2023-04-27T08:52:16;20.90;66.20
7666;DHT22;3875;46.562;4.898;2023-04-27T08:54:42;20.90;65.30
7666;DHT22;3875;46.562;4.898;2023-04-27T08:57:12;20.50;65.30
7666;DHT22;3875;46.562;4.898;2023-04-27T08:59:39;20.30;65.90
7666;DHT22;3875;46.562;4.898;2023-04-27T09:02:05;20.10;66.60
7666;DHT22;3875;46.562;4.898;2023-04-27T09:04:40;20.20;67.20
7666;DHT22;3875;46.562;4.898;2023-04-27T09:07:14;20.50;67.10
7666;DHT22;3875;46.562;4.898;2023-04-27T09:09:40;20.90;66.70
7666;DHT22;3875;46.562;4.898;2023-04-27T09:12:16;21.20;66.00
7666;DHT22;3875;46.562;4.898;2023-04-27T09:14:43;21.40;64.60
7666;DHT22;3875;46.562;4.898;2023-04-27T09:17:09;21.80;64.30
7666;DHT22;3875;46.562;4.898;2023-04-27T09:19:34;21.90;63.90
7666;DHT22;3875;46.562;4.898;2023-04-27T09:22:08;22.00;63.90
7666;DHT22;3875;46.562;4.898;2023-04-27T09:24:35;22.10;64.30
7666;DHT22;3875;46.562;4.898;2023-04-27T09:27:02;22.30;64.10
7666;DHT22;3875;46.562;4.898;2023-04-27T09:29:36;22.60;63.90
7666;DHT22;3875;46.562;4.898;2023-04-27T09:32:16;22.80;64.70
7666;DHT22;3875;46.562;4.898;2023-04-27T09:34:43;23.10;63.10
7666;DHT22;3875;46.562;4.898;2023-04-27T09:37:09;23.20;63.30
7666;DHT22;3875;46.562;4.898;2023-04-27T09:39:35;23.40;62.00
7666;DHT22;3875;46.562;4.898;2023-04-27T09:42:01;23.50;62.70
7666;DHT22;3875;46.562;4.898;2023-04-27T09:44:29;23.60;62.60
7666;DHT22;3875;46.562;4.898;2023-04-27T09:46:57;23.70;62.80
7666;DHT22;3875;46.562;4.898;2023-04-27T09:49:25;23.90;62.10
7666;DHT22;3875;46.562;4.898;2023-04-27T09:51:51;24.10;61.40
7666;DHT22;3875;46.562;4.898;2023-04-27T09:54:19;24.30;61.50
7666;DHT22;3875;46.562;4.898;2023-04-27T10:02:23;24.50;60.20
7666;DHT22;3875;46.562;4.898;2023-04-27T10:05:37;24.60;60.90
7666;DHT22;3875;46.562;4.898;2023-04-27T10:08:02;24.80;59.10
7666;DHT22;3875;46.562;4.898;2023-04-27T10:10:29;24.70;59.20
7666;DHT22;3875;46.562;4.898;2023-04-27T10:13:04;24.70;59.00
7666;DHT22;3875;46.562;4.898;2023-04-27T10:15:31;24.60;59.40
7666;DHT22;3875;46.562;4.898;2023-04-27T10:18:03;24.90;58.30
7666;DHT22;3875;46.562;4.898;2023-04-27T10:20:31;24.90;59.20
7666;DHT22;3875;46.562;4.898;2023-04-27T10:22:57;24.80;59.50
7666;DHT22;3875;46.562;4.898;2023-04-27T10:25:26;24.80;59.30
7666;DHT22;3875;46.562;4.898;2023-04-27T10:28:00;24.60;60.20
7666;DHT22;3875;46.562;4.898;2023-04-27T10:30:32;24.60;60.80
7666;DHT22;3875;46.562;4.898;2023-04-27T10:33:06;24.50;59.40
7666;DHT22;3875;46.562;4.898;2023-04-27T10:35:41;24.40;60.20
7666;DHT22;3875;46.562;4.898;2023-04-27T10:38:19;24.20;59.50
7666;DHT22;3875;46.562;4.898;2023-04-27T10:43:27;24.50;59.30
7666;DHT22;3875;46.562;4.898;2023-04-27T10:45:54;24.60;60.30
7666;DHT22;3875;46.562;4.898;2023-04-27T10:48:20;24.90;59.20
7666;DHT22;3875;46.562;4.898;2023-04-27T10:50:49;25.00;59.40
7666;DHT22;3875;46.562;4.898;2023-04-27T10:53:15;25.10;58.40
7666;DHT22;3875;46.562;4.898;2023-04-27T10:55:41;25.10;58.60
7666;DHT22;3875;46.562;4.898;2023-04-27T10:58:09;25.10;58.70
7666;DHT22;3875;46.562;4.898;2023-04-27T11:00:38;25.20;58.50
7666;DHT22;3875;46.562;4.898;2023-04-27T11:03:20;25.30;59.40
7666;DHT22;3875;46.562;4.898;2023-04-27T11:05:48;25.40;59.10
7666;DHT22;3875;46.562;4.898;2023-04-27T11:08:15;25.40;58.80
7666;DHT22;3875;46.562;4.898;2023-04-27T11:10:48;25.50;59.40
7666;DHT22;3875;46.562;4.898;2023-04-27T11:13:34;25.60;59.00
7666;DHT22;3875;46.562;4.898;2023-04-27T11:16:00;25.70;57.80
7666;DHT22;3875;46.562;4.898;2023-04-27T11:18:30;25.60;58.10
7666;DHT22;3875;46.562;4.898;2023-04-27T11:21:24;25.60;57.30
7666;DHT22;3875;46.562;4.898;2023-04-27T11:23:50;25.40;59.10
7666;DHT22;3875;46.562;4.898;2023-04-27T11:26:16;25.40;58.00
7666;DHT22;3875;46.562;4.898;2023-04-27T11:28:57;25.30;58.80
7666;DHT22;3875;46.562;4.898;2023-04-27T11:31:23;25.30;58.30
7666;DHT22;3875;46.562;4.898;2023-04-27T11:33:49;25.40;58.90
7666;DHT22;3875;46.562;4.898;2023-04-27T11:36:21;25.90;58.00
7666;DHT22;3875;46.562;4.898;2023-04-27T11:38:47;26.20;58.00
7666;DHT22;3875;46.562;4.898;2023-04-27T11:41:13;26.30;57.60
7666;DHT22;3875;46.562;4.898;2023-04-27T11:43:43;26.20;57.40
7666;DHT22;3875;46.562;4.898;2023-04-27T11:46:11;25.90;57.10
7666;DHT22;3875;46.562;4.898;2023-04-27T11:48:38;25.70;57.70
7666;DHT22;3875;46.562;4.898;2023-04-27T11:51:05;25.60;57.50
7666;DHT22;3875;46.562;4.898;2023-04-27T11:53:32;25.70;57.60
7666;DHT22;3875;46.562;4.898;2023-04-27T11:56:02;25.80;55.70
7666;DHT22;3875;46.562;4.898;2023-04-27T11:58:33;25.60;57.50
7666;DHT22;3875;46.562;4.898;2023-04-27T12:00:59;25.40;57.30
7666;DHT22;3875;46.562;4.898;2023-04-27T12:03:27;25.30;58.30
7666;DHT22;3875;46.562;4.898;2023-04-27T12:05:53;25.60;57.90
7666;DHT22;3875;46.562;4.898;2023-04-27T12:08:24;25.50;57.90
7666;DHT22;3875;46.562;4.898;2023-04-27T12:10:56;25.70;58.50
7666;DHT22;3875;46.562;4.898;2023-04-27T12:13:23;25.80;58.10
7666;DHT22;3875;46.562;4.898;2023-04-27T12:15:48;25.70;58.30
7666;DHT22;3875;46.562;4.898;2023-04-27T12:18:14;25.70;58.20
7666;DHT22;3875;46.562;4.898;2023-04-27T12:20:39;25.70;57.90
7666;DHT22;3875;46.562;4.898;2023-04-27T12:23:08;25.80;57.70
7666;DHT22;3875;46.562;4.898;2023-04-27T12:25:34;26.00;57.60
7666;DHT22;3875;46.562;4.898;2023-04-27T12:28:00;26.10;57.00
7666;DHT22;3875;46.562;4.898;2023-04-27T12:30:26;26.20;56.60
7666;DHT22;3875;46.562;4.898;2023-04-27T12:32:51;26.20;56.60
7666;DHT22;3875;46.562;4.898;2023-04-27T12:35:17;26.00;56.10
7666;DHT22;3875;46.562;4.898;2023-04-27T12:37:43;25.80;56.70
7666;DHT22;3875;46.562;4.898;2023-04-27T12:40:09;25.60;57.00
7666;DHT22;3875;46.562;4.898;2023-04-27T12:42:35;25.50;57.20
7666;DHT22;3875;46.562;4.898;2023-04-27T12:45:00;25.50;56.40
7666;DHT22;3875;46.562;4.898;2023-04-27T12:47:26;25.50;57.20
7666;DHT22;3875;46.562;4.898;2023-04-27T12:49:52;25.90;58.00
7666;DHT22;3875;46.562;4.898;2023-04-27T12:52:18;26.50;56.90
7666;DHT22;3875;46.562;4.898;2023-04-27T12:54:44;26.80;56.30
7666;DHT22;3875;46.562;4.898;2023-04-27T12:57:11;27.10;55.80
7666;DHT22;3875;46.562;4.898;2023-04-27T12:59:37;27.20;56.20
7666;DHT22;3875;46.562;4.898;2023-04-27T13:02:04;27.30;55.70
7666;DHT22;3875;46.562;4.898;2023-04-27T13:04:31;27.50;55.40
7666;DHT22;3875;46.562;4.898;2023-04-27T13:06:57;27.60;54.90
7666;DHT22;3875;46.562;4.898;2023-04-27T13:09:28;27.50;54.40
7666;DHT22;3875;46.562;4.898;2023-04-27T13:11:54;27.50;54.50
7666;DHT22;3875;46.562;4.898;2023-04-27T13:14:20;27.70;54.70
7666;DHT22;3875;46.562;4.898;2023-04-27T13:16:46;27.40;53.20
7666;DHT22;3875;46.562;4.898;2023-04-27T13:19:12;27.10;54.50
7666;DHT22;3875;46.562;4.898;2023-04-27T13:21:38;27.50;55.30
7666;DHT22;3875;46.562;4.898;2023-04-27T13:24:04;27.70;53.40
7666;DHT22;3875;46.562;4.898;2023-04-27T13:26:30;27.60;53.30
7666;DHT22;3875;46.562;4.898;2023-04-27T13:28:55;27.50;53.60
7666;DHT22;3875;46.562;4.898;2023-04-27T13:31:21;27.70;54.20
7666;DHT22;3875;46.562;4.898;2023-04-27T13:33:47;28.00;54.80
7666;DHT22;3875;46.562;4.898;2023-04-27T13:36:13;28.10;53.70
7666;DHT22;3875;46.562;4.898;2023-04-27T13:38:38;28.20;53.80
7666;DHT22;3875;46.562;4.898;2023-04-27T13:41:04;28.20;53.10
7666;DHT22;3875;46.562;4.898;2023-04-27T13:43:31;28.10;53.50
7666;DHT22;3875;46.562;4.898;2023-04-27T13:45:57;27.70;53.10
7666;DHT22;3875;46.562;4.898;2023-04-27T13:48:23;27.40;54.20
7666;DHT22;3875;46.562;4.898;2023-04-27T13:50:49;27.40;53.40
7666;DHT22;3875;46.562;4.898;2023-04-27T13:53:15;27.40;53.60
7666;DHT22;3875;46.562;4.898;2023-04-27T13:55:42;27.50;54.20
7666;DHT22;3875;46.562;4.898;2023-04-27T13:58:08;27.60;53.60
7666;DHT22;3875;46.562;4.898;2023-04-27T14:00:35;27.20;54.10
7666;DHT22;3875;46.562;4.898;2023-04-27T14:03:01;26.70;54.60
7666;DHT22;3875;46.562;4.898;2023-04-27T14:05:29;27.00;55.50
7666;DHT22;3875;46.562;4.898;2023-04-27T14:07:54;27.20;55.40
7666;DHT22;3875;46.562;4.898;2023-04-27T14:10:21;27.30;54.20
7666;DHT22;3875;46.562;4.898;2023-04-27T14:12:52;27.40;54.70
7666;DHT22;3875;46.562;4.898;2023-04-27T14:15:17;27.60;53.40
7666;DHT22;3875;46.562;4.898;2023-04-27T14:17:46;27.70;53.80
7666;DHT22;3875;46.562;4.898;2023-04-27T14:20:20;27.90;54.30
7666;DHT22;3875;46.562;4.898;2023-04-27T14:22:48;28.10;53.90
7666;DHT22;3875;46.562;4.898;2023-04-27T14:25:14;28.20;53.20
7666;DHT22;3875;46.562;4.898;2023-04-27T14:27:40;28.20;53.40
7666;DHT22;3875;46.562;4.898;2023-04-27T14:30:06;28.30;53.20
7666;DHT22;3875;46.562;4.898;2023-04-27T14:32:32;28.20;53.00
7666;DHT22;3875;46.562;4.898;2023-04-27T14:34:58;28.30;53.50
7666;DHT22;3875;46.562;4.898;2023-04-27T14:37:23;28.50;52.90
7666;DHT22;3875;46.562;4.898;2023-04-27T14:39:49;28.40;53.10
7666;DHT22;3875;46.562;4.898;2023-04-27T14:42:14;28.40;53.10
7666;DHT22;3875;46.562;4.898;2023-04-27T14:44:40;28.20;52.80
7666;DHT22;3875;46.562;4.898;2023-04-27T14:47:06;28.10;53.10
7666;DHT22;3875;46.562;4.898;2023-04-27T14:49:31;28.00;53.00
7666;DHT22;3875;46.562;4.898;2023-04-27T14:51:57;28.00;53.30
7666;DHT22;3875;46.562;4.898;2023-04-27T14:54:24;28.00;53.50
7666;DHT22;3875;46.562;4.898;2023-04-27T14:56:50;27.60;54.10
7666;DHT22;3875;46.562;4.898;2023-04-27T14:59:16;27.40;54.30
7666;DHT22;3875;46.562;4.898;2023-04-27T15:01:42;27.50;54.40
7666;DHT22;3875;46.562;4.898;2023-04-27T15:04:09;27.50;54.20
7666;DHT22;3875;46.562;4.898;2023-04-27T15:06:36;27.70;53.80
7666;DHT22;3875;46.562;4.898;2023-04-27T15:09:01;27.80;53.20
7666;DHT22;3875;46.562;4.898;2023-04-27T15:11:28;27.70;53.20
7666;DHT22;3875;46.562;4.898;2023-04-27T15:13:54;27.40;53.30
7666;DHT22;3875;46.562;4.898;2023-04-27T15:16:20;27.60;54.00
7666;DHT22;3875;46.562;4.898;2023-04-27T15:18:46;27.80;53.90
7666;DHT22;3875;46.562;4.898;2023-04-27T15:21:12;28.00;53.70
7666;DHT22;3875;46.562;4.898;2023-04-27T15:23:37;28.10;52.60
7666;DHT22;3875;46.562;4.898;2023-04-27T15:26:04;28.10;53.10
7666;DHT22;3875;46.562;4.898;2023-04-27T15:28:29;28.10;52.60
7666;DHT22;3875;46.562;4.898;2023-04-27T15:30:58;28.20;52.20
7666;DHT22;3875;46.562;4.898;2023-04-27T15:33:24;28.30;52.60
7666;DHT22;3875;46.562;4.898;2023-04-27T15:35:50;28.20;52.60
7666;DHT22;3875;46.562;4.898;2023-04-27T15:38:15;28.00;53.00
7666;DHT22;3875;46.562;4.898;2023-04-27T15:40:42;28.10;52.90
7666;DHT22;3875;46.562;4.898;2023-04-27T15:43:08;28.10;52.50
7666;DHT22;3875;46.562;4.898;2023-04-27T15:45:34;28.20;52.80
7666;DHT22;3875;46.562;4.898;2023-04-27T15:47:59;28.30;53.10
7666;DHT22;3875;46.562;4.898;2023-04-27T15:50:25;28.50;52.70
7666;DHT22;3875;46.562;4.898;2023-04-27T15:52:51;28.60;53.00
7666;DHT22;3875;46.562;4.898;2023-04-27T15:55:17;28.40;52.40
7666;DHT22;3875;46.562;4.898;2023-04-27T15:57:43;28.00;52.90
7666;DHT22;3875;46.562;4.898;2023-04-27T16:00:09;27.50;53.70
7666;DHT22;3875;46.562;4.898;2023-04-27T16:02:36;27.20;54.20
7666;DHT22;3875;46.562;4.898;2023-04-27T16:05:03;27.00;54.80
7666;DHT22;3875;46.562;4.898;2023-04-27T16:07:33;26.80;54.40
7666;DHT22;3875;46.562;4.898;2023-04-27T16:09:59;26.90;55.00
7666;DHT22;3875;46.562;4.898;2023-04-27T16:12:25;27.10;54.40
7666;DHT22;3875;46.562;4.898;2023-04-27T16:14:50;26.90;54.00
7666;DHT22;3875;46.562;4.898;2023-04-27T16:17:28;26.60;54.60
7666;DHT22;3875;46.562;4.898;2023-04-27T16:19:58;26.40;55.20
7666;DHT22;3875;46.562;4.898;2023-04-27T16:22:24;26.10;56.00
7666;DHT22;3875;46.562;4.898;2023-04-27T16:24:50;26.40;55.90
7666;DHT22;3875;46.562;4.898;2023-04-27T16:27:16;27.00;54.30
7666;DHT22;3875;46.562;4.898;2023-04-27T16:29:45;27.10;55.20
7666;DHT22;3875;46.562;4.898;2023-04-27T16:32:11;27.10;54.60